createdAt,value
2019-04-30T00:00:34.737Z,1011.75
2019-04-30T00:01:33.026Z,1011.77
2019-04-30T00:02:35.912Z,1011.75
2019-04-30T00:03:35.107Z,1011.71
2019-04-30T00:04:37.133Z,1011.77
2019-04-30T00:05:35.145Z,1011.74
2019-04-30T00:06:37.650Z,1011.76
2019-04-30T00:07:33.363Z,1011.75
2019-04-30T00:08:35.571Z,1011.73
2019-04-30T00:09:35.160Z,1011.75
2019-04-30T00:10:39.631Z,1011.78
2019-04-30T00:11:33.586Z,1011.74
2019-04-30T00:12:35.936Z,1011.74
2019-04-30T00:13:35.721Z,1011.71
2019-04-30T00:14:39.932Z,1011.70
2019-04-30T00:15:35.612Z,1011.73
2019-04-30T00:16:36.210Z,1011.70
2019-04-30T00:17:35.880Z,1011.70
2019-04-30T00:18:37.930Z,1011.72
2019-04-30T00:19:35.844Z,1011.69
2019-04-30T00:20:37.016Z,1011.68
2019-04-30T00:21:36.012Z,1011.67
2019-04-30T00:22:38.500Z,1011.64
2019-04-30T00:23:35.897Z,1011.72
2019-04-30T00:24:35.471Z,1011.70
2019-04-30T00:25:35.157Z,1011.73
2019-04-30T00:26:35.408Z,1011.73
2019-04-30T00:27:35.595Z,1011.72
2019-04-30T00:28:35.363Z,1011.72
2019-04-30T00:29:35.634Z,1011.73
2019-04-30T00:30:35.041Z,1011.71
2019-04-30T00:31:35.005Z,1011.75
2019-04-30T00:32:39.052Z,1011.71
2019-04-30T00:33:35.342Z,1011.66
2019-04-30T00:34:35.869Z,1011.69
2019-04-30T00:35:35.551Z,1011.71
2019-04-30T00:36:37.427Z,1011.69
2019-04-30T00:37:35.302Z,1011.69
2019-04-30T00:38:37.826Z,1011.69
2019-04-30T00:39:35.532Z,1011.67
2019-04-30T00:40:35.307Z,1011.68
2019-04-30T00:41:35.447Z,1011.67
2019-04-30T00:42:35.746Z,1011.66
2019-04-30T00:43:37.594Z,1011.61
2019-04-30T00:44:35.732Z,1011.60
2019-04-30T00:45:35.516Z,1011.58
2019-04-30T00:46:36.462Z,1011.59
2019-04-30T00:47:39.566Z,1011.62
2019-04-30T00:48:35.779Z,1011.58
2019-04-30T00:49:35.726Z,1011.53
2019-04-30T00:50:37.174Z,1011.53
2019-04-30T00:51:35.839Z,1011.55
2019-04-30T00:52:37.350Z,1011.55
2019-04-30T00:53:35.995Z,1011.55
2019-04-30T00:54:36.010Z,1011.55
2019-04-30T00:55:40.215Z,1011.58
2019-04-30T00:56:36.121Z,1011.57
2019-04-30T00:57:37.324Z,1011.56
2019-04-30T00:58:36.234Z,1011.52
2019-04-30T00:59:39.766Z,1011.49
2019-04-30T01:00:37.157Z,1011.48
2019-04-30T01:01:37.412Z,1011.51
2019-04-30T01:02:36.461Z,1011.51
2019-04-30T01:03:39.455Z,1011.46
2019-04-30T01:04:36.574Z,1011.48
2019-04-30T01:05:39.552Z,1011.49
2019-04-30T01:06:36.687Z,1011.47
2019-04-30T01:07:39.657Z,1011.48
2019-04-30T01:08:36.797Z,1011.45
2019-04-30T01:09:39.643Z,1011.47
2019-04-30T01:10:36.911Z,1011.44
2019-04-30T01:11:39.764Z,1011.40
2019-04-30T01:12:43.864Z,1011.45
2019-04-30T01:13:38.923Z,1011.41
2019-04-30T01:14:38.605Z,1011.45
2019-04-30T01:15:38.952Z,1011.41
2019-04-30T01:16:39.394Z,1011.38
2019-04-30T01:17:38.246Z,1011.42
2019-04-30T01:18:38.987Z,1011.45
2019-04-30T01:19:39.515Z,1011.41
2019-04-30T01:20:38.663Z,1011.45
2019-04-30T01:21:40.170Z,1011.45
2019-04-30T01:22:38.886Z,1011.52
2019-04-30T01:23:41.794Z,1011.49
2019-04-30T01:24:38.696Z,1011.49
2019-04-30T01:25:38.856Z,1011.49
2019-04-30T01:26:39.345Z,1011.46
2019-04-30T01:27:39.495Z,1011.49
2019-04-30T01:28:38.594Z,1011.49
2019-04-30T01:29:43.903Z,1011.43
2019-04-30T01:30:39.363Z,1011.49
2019-04-30T01:31:40.807Z,1011.47
2019-04-30T01:32:39.495Z,1011.48
2019-04-30T01:33:39.031Z,1011.41
2019-04-30T01:34:39.532Z,1011.43
2019-04-30T01:35:40.528Z,1011.40
2019-04-30T01:36:39.278Z,1011.47
2019-04-30T01:37:38.743Z,1011.49
2019-04-30T01:38:40.254Z,1011.48
2019-04-30T01:39:39.153Z,1011.48
2019-04-30T01:40:38.606Z,1011.49
2019-04-30T01:41:40.185Z,1011.44
2019-04-30T01:42:41.164Z,1011.44
2019-04-30T01:43:38.776Z,1011.42
2019-04-30T01:44:39.261Z,1011.43
2019-04-30T01:45:38.889Z,1011.43
2019-04-30T01:46:39.099Z,1011.46
2019-04-30T01:47:39.691Z,1011.46
2019-04-30T01:48:39.380Z,1011.50
2019-04-30T01:49:42.759Z,1011.44
2019-04-30T01:50:42.066Z,1011.49
2019-04-30T01:51:39.246Z,1011.50
2019-04-30T01:52:41.153Z,1011.51
2019-04-30T01:53:43.582Z,1011.55
2019-04-30T01:54:39.401Z,1011.51
2019-04-30T01:55:41.493Z,1011.52
2019-04-30T01:56:39.509Z,1011.46
2019-04-30T01:57:39.567Z,1011.47
2019-04-30T01:58:39.624Z,1011.49
2019-04-30T01:59:39.682Z,1011.49
2019-04-30T02:00:39.736Z,1011.50
2019-04-30T02:01:39.792Z,1011.50
2019-04-30T02:02:39.849Z,1011.50
2019-04-30T02:03:40.120Z,1011.53
2019-04-30T02:04:39.961Z,1011.51
2019-04-30T02:05:40.019Z,1011.50
2019-04-30T02:06:40.074Z,1011.50
2019-04-30T02:07:40.381Z,1011.51
2019-04-30T02:08:40.187Z,1011.51
2019-04-30T02:09:40.244Z,1011.52
2019-04-30T02:10:40.453Z,1011.52
2019-04-30T02:11:40.359Z,1011.55
2019-04-30T02:12:40.416Z,1011.56
2019-04-30T02:13:40.473Z,1011.56
2019-04-30T02:14:40.527Z,1011.57
2019-04-30T02:15:40.584Z,1011.61
2019-04-30T02:16:40.640Z,1011.57
2019-04-30T02:17:40.696Z,1011.57
2019-04-30T02:18:40.752Z,1011.57
2019-04-30T02:19:40.809Z,1011.57
2019-04-30T02:20:40.865Z,1011.59
2019-04-30T02:21:40.921Z,1011.56
2019-04-30T02:22:40.980Z,1011.55
2019-04-30T02:23:41.034Z,1011.55
2019-04-30T02:24:41.090Z,1011.55
2019-04-30T02:25:41.148Z,1011.61
2019-04-30T02:26:41.202Z,1011.61
2019-04-30T02:27:41.260Z,1011.60
2019-04-30T02:28:41.316Z,1011.60
2019-04-30T02:29:41.372Z,1011.55
2019-04-30T02:30:41.430Z,1011.57
2019-04-30T02:31:41.486Z,1011.57
2019-04-30T02:32:41.542Z,1011.59
2019-04-30T02:33:41.605Z,1011.53
2019-04-30T02:34:44.216Z,1011.56
2019-04-30T02:35:41.712Z,1011.56
2019-04-30T02:36:41.767Z,1011.49
2019-04-30T02:37:43.537Z,1011.51
2019-04-30T02:38:41.881Z,1011.47
2019-04-30T02:39:41.941Z,1011.53
2019-04-30T02:40:42.545Z,1011.51
2019-04-30T02:41:42.053Z,1011.47
2019-04-30T02:42:42.105Z,1011.48
2019-04-30T02:43:42.160Z,1011.46
2019-04-30T02:44:42.216Z,1011.48
2019-04-30T02:45:42.343Z,1011.49
2019-04-30T02:46:42.328Z,1011.51
2019-04-30T02:47:42.386Z,1011.56
2019-04-30T02:48:42.442Z,1011.56
2019-04-30T02:49:42.496Z,1011.56
2019-04-30T02:50:42.559Z,1011.54
2019-04-30T02:51:42.612Z,1011.55
2019-04-30T02:52:42.666Z,1011.52
2019-04-30T02:53:42.723Z,1011.53
2019-04-30T02:54:42.780Z,1011.58
2019-04-30T02:55:42.836Z,1011.59
2019-04-30T02:56:42.890Z,1011.60
2019-04-30T02:57:42.951Z,1011.59
2019-04-30T02:58:43.005Z,1011.56
2019-04-30T02:59:43.061Z,1011.54
2019-04-30T03:00:43.119Z,1011.59
2019-04-30T03:01:43.192Z,1011.56
2019-04-30T03:02:43.228Z,1011.55
2019-04-30T03:03:43.286Z,1011.56
2019-04-30T03:04:43.341Z,1011.55
2019-04-30T03:05:43.397Z,1011.56
2019-04-30T03:06:43.460Z,1011.55
2019-04-30T03:07:43.516Z,1011.55
2019-04-30T03:08:43.565Z,1011.55
2019-04-30T03:09:43.624Z,1011.57
2019-04-30T03:10:43.679Z,1011.56
2019-04-30T03:11:43.734Z,1011.56
2019-04-30T03:12:43.792Z,1011.55
2019-04-30T03:13:43.846Z,1011.55
2019-04-30T03:14:43.903Z,1011.54
2019-04-30T03:15:43.959Z,1011.54
2019-04-30T03:16:44.021Z,1011.51
2019-04-30T03:17:44.071Z,1011.51
2019-04-30T03:18:44.127Z,1011.46
2019-04-30T03:19:44.187Z,1011.47
2019-04-30T03:20:44.239Z,1011.47
2019-04-30T03:21:44.298Z,1011.47
2019-04-30T03:22:44.354Z,1011.48
2019-04-30T03:23:44.407Z,1011.47
2019-04-30T03:24:44.466Z,1011.49
2019-04-30T03:25:44.524Z,1011.47
2019-04-30T03:26:44.577Z,1011.46
2019-04-30T03:27:44.633Z,1011.46
2019-04-30T03:28:44.689Z,1011.45
2019-04-30T03:29:44.746Z,1011.45
2019-04-30T03:30:44.803Z,1011.43
2019-04-30T03:31:45.754Z,1011.43
2019-04-30T03:32:50.484Z,1011.44
2019-04-30T03:33:44.975Z,1011.38
2019-04-30T03:34:45.031Z,1011.41
2019-04-30T03:35:47.716Z,1011.40
2019-04-30T03:36:45.139Z,1011.40
2019-04-30T03:37:45.196Z,1011.42
2019-04-30T03:38:45.255Z,1011.40
2019-04-30T03:39:45.342Z,1011.35
2019-04-30T03:40:45.363Z,1011.35
2019-04-30T03:41:45.420Z,1011.32
2019-04-30T03:42:45.482Z,1011.35
2019-04-30T03:43:45.546Z,1011.33
2019-04-30T03:44:45.598Z,1011.28
2019-04-30T03:45:45.648Z,1011.30
2019-04-30T03:46:45.703Z,1011.32
2019-04-30T03:47:45.758Z,1011.30
2019-04-30T03:48:45.814Z,1011.30
2019-04-30T03:49:45.872Z,1011.30
2019-04-30T03:50:53.429Z,1011.26
2019-04-30T03:51:45.984Z,1011.24
2019-04-30T03:52:46.038Z,1011.23
2019-04-30T03:53:46.096Z,1011.23
2019-04-30T03:54:46.152Z,1011.24
2019-04-30T03:55:46.208Z,1011.26
2019-04-30T03:56:46.266Z,1011.22
2019-04-30T03:57:46.319Z,1011.23
2019-04-30T03:58:46.377Z,1011.22
2019-04-30T03:59:46.439Z,1011.21
2019-04-30T04:00:46.781Z,1011.22
2019-04-30T04:01:46.559Z,1011.20
2019-04-30T04:02:46.601Z,1011.23
2019-04-30T04:03:46.658Z,1011.22
2019-04-30T04:04:49.435Z,1011.21
2019-04-30T04:05:46.772Z,1011.19
2019-04-30T04:06:49.051Z,1011.18
2019-04-30T04:07:52.523Z,1011.20
2019-04-30T04:08:48.909Z,1011.21
2019-04-30T04:09:49.696Z,1011.19
2019-04-30T04:10:47.052Z,1011.24
2019-04-30T04:11:47.108Z,1011.19
2019-04-30T04:12:49.600Z,1011.15
2019-04-30T04:13:49.416Z,1011.19
2019-04-30T04:14:47.281Z,1011.20
2019-04-30T04:15:49.837Z,1011.17
2019-04-30T04:16:50.408Z,1011.15
2019-04-30T04:17:50.189Z,1011.21
2019-04-30T04:18:49.801Z,1011.19
2019-04-30T04:19:49.428Z,1011.19
2019-04-30T04:20:51.986Z,1011.19
2019-04-30T04:21:50.717Z,1011.21
2019-04-30T04:22:49.673Z,1011.24
2019-04-30T04:23:49.281Z,1011.22
2019-04-30T04:24:50.076Z,1011.24
2019-04-30T04:25:49.875Z,1011.26
2019-04-30T04:26:50.183Z,1011.25
2019-04-30T04:27:50.545Z,1011.22
2019-04-30T04:28:49.684Z,1011.22
2019-04-30T04:29:50.967Z,1011.23
2019-04-30T04:30:50.588Z,1011.25
2019-04-30T04:31:50.091Z,1011.25
2019-04-30T04:32:50.078Z,1011.20
2019-04-30T04:33:49.634Z,1011.25
2019-04-30T04:34:50.421Z,1011.26
2019-04-30T04:35:49.779Z,1011.23
2019-04-30T04:36:50.469Z,1011.26
2019-04-30T04:37:49.533Z,1011.21
2019-04-30T04:38:50.639Z,1011.27
2019-04-30T04:39:50.001Z,1011.24
2019-04-30T04:40:50.171Z,1011.28
2019-04-30T04:41:50.375Z,1011.28
2019-04-30T04:42:49.448Z,1011.28
2019-04-30T04:43:50.341Z,1011.29
2019-04-30T04:44:50.262Z,1011.28
2019-04-30T04:45:49.852Z,1011.26
2019-04-30T04:46:50.362Z,1011.30
2019-04-30T04:47:50.358Z,1011.28
2019-04-30T04:48:49.568Z,1011.27
2019-04-30T04:49:53.189Z,1011.29
2019-04-30T04:50:50.203Z,1011.29
2019-04-30T04:51:49.429Z,1011.28
2019-04-30T04:52:49.763Z,1011.23
2019-04-30T04:53:50.047Z,1011.29
2019-04-30T04:54:50.585Z,1011.28
2019-04-30T04:55:50.050Z,1011.30
2019-04-30T04:56:50.431Z,1011.32
2019-04-30T04:57:50.179Z,1011.32
2019-04-30T04:58:50.307Z,1011.29
2019-04-30T04:59:50.242Z,1011.28
2019-04-30T05:00:49.863Z,1011.27
2019-04-30T05:01:49.919Z,1011.26
2019-04-30T05:02:49.999Z,1011.24
2019-04-30T05:03:50.031Z,1011.26
2019-04-30T05:04:50.092Z,1011.29
2019-04-30T05:05:50.158Z,1011.30
2019-04-30T05:06:50.201Z,1011.30
2019-04-30T05:07:50.256Z,1011.32
2019-04-30T05:08:50.318Z,1011.33
2019-04-30T05:09:50.369Z,1011.33
2019-04-30T05:10:50.433Z,1011.31
2019-04-30T05:11:50.483Z,1011.37
2019-04-30T05:12:51.036Z,1011.33
2019-04-30T05:13:50.595Z,1011.38
2019-04-30T05:14:50.654Z,1011.36
2019-04-30T05:15:51.545Z,1011.35
2019-04-30T05:16:50.764Z,1011.36
2019-04-30T05:17:50.820Z,1011.36
2019-04-30T05:18:50.877Z,1011.36
2019-04-30T05:19:50.940Z,1011.36
2019-04-30T05:20:51.112Z,1011.37
2019-04-30T05:21:51.749Z,1011.38
2019-04-30T05:22:51.140Z,1011.39
2019-04-30T05:23:51.178Z,1011.37
2019-04-30T05:24:51.215Z,1011.40
2019-04-30T05:25:51.294Z,1011.37
2019-04-30T05:26:51.358Z,1011.41
2019-04-30T05:27:51.486Z,1011.40
2019-04-30T05:28:52.956Z,1011.38
2019-04-30T05:29:51.498Z,1011.36
2019-04-30T05:30:51.556Z,1011.38
2019-04-30T05:31:51.657Z,1011.40
2019-04-30T05:32:51.716Z,1011.37
2019-04-30T05:33:51.725Z,1011.40
2019-04-30T05:34:51.784Z,1011.38
2019-04-30T05:35:51.843Z,1011.39
2019-04-30T05:36:51.895Z,1011.37
2019-04-30T05:37:51.970Z,1011.41
2019-04-30T05:38:52.012Z,1011.41
2019-04-30T05:39:52.092Z,1011.45
2019-04-30T05:40:52.155Z,1011.41
2019-04-30T05:41:52.260Z,1011.41
2019-04-30T05:42:52.605Z,1011.43
2019-04-30T05:43:52.297Z,1011.39
2019-04-30T05:44:52.370Z,1011.42
2019-04-30T05:45:52.408Z,1011.42
2019-04-30T05:46:52.521Z,1011.44
2019-04-30T05:47:52.522Z,1011.41
2019-04-30T05:48:52.577Z,1011.39
2019-04-30T05:49:52.636Z,1011.45
2019-04-30T05:50:53.014Z,1011.42
2019-04-30T05:51:55.655Z,1011.42
2019-04-30T05:52:52.841Z,1011.44
2019-04-30T05:53:52.871Z,1011.40
2019-04-30T05:54:52.961Z,1011.43
2019-04-30T05:55:53.013Z,1011.43
2019-04-30T05:56:53.071Z,1011.42
2019-04-30T05:57:56.376Z,1011.45
2019-04-30T05:58:53.167Z,1011.41
2019-04-30T05:59:53.237Z,1011.40
2019-04-30T06:00:53.284Z,1011.41
2019-04-30T06:01:53.354Z,1011.39
2019-04-30T06:02:53.422Z,1011.41
2019-04-30T06:03:53.448Z,1011.39
2019-04-30T06:04:53.724Z,1011.42
2019-04-30T06:05:54.818Z,1011.45
2019-04-30T06:06:53.885Z,1011.46
2019-04-30T06:07:55.448Z,1011.49
2019-04-30T06:09:03.984Z,1011.50
2019-04-30T06:09:54.125Z,1011.49
2019-04-30T06:10:53.846Z,1011.47
2019-04-30T06:11:53.951Z,1011.47
2019-04-30T06:12:54.324Z,1011.47
2019-04-30T06:13:54.380Z,1011.47
2019-04-30T06:14:54.101Z,1011.50
2019-04-30T06:15:54.517Z,1011.51
2019-04-30T06:16:54.545Z,1011.47
2019-04-30T06:18:00.938Z,1011.47
2019-04-30T06:18:54.327Z,1011.48
2019-04-30T06:19:54.361Z,1011.44
2019-04-30T06:20:54.405Z,1011.46
2019-04-30T06:22:04.928Z,1011.48
2019-04-30T06:22:54.871Z,1011.48
2019-04-30T06:23:54.580Z,1011.53
2019-04-30T06:24:54.635Z,1011.49
2019-04-30T06:25:59.414Z,1011.55
2019-04-30T06:26:54.749Z,1011.59
2019-04-30T06:27:54.888Z,1011.57
2019-04-30T06:28:54.864Z,1011.54
2019-04-30T06:29:54.927Z,1011.58
2019-04-30T06:30:54.980Z,1011.56
2019-04-30T06:31:55.038Z,1011.55
2019-04-30T06:32:55.094Z,1011.60
2019-04-30T06:33:55.152Z,1011.57
2019-04-30T06:34:55.692Z,1011.60
2019-04-30T06:35:55.268Z,1011.57
2019-04-30T06:36:56.901Z,1011.58
2019-04-30T06:37:55.382Z,1011.58
2019-04-30T06:38:55.546Z,1011.58
2019-04-30T06:39:55.596Z,1011.57
2019-04-30T06:40:55.606Z,1011.58
2019-04-30T06:42:05.007Z,1011.58
2019-04-30T06:42:55.727Z,1011.58
2019-04-30T06:43:55.836Z,1011.60
2019-04-30T06:44:55.825Z,1011.61
2019-04-30T06:45:55.855Z,1011.63
2019-04-30T06:46:56.561Z,1011.64
2019-04-30T06:47:55.963Z,1011.67
2019-04-30T06:48:56.020Z,1011.62
2019-04-30T06:49:56.078Z,1011.63
2019-04-30T06:50:56.136Z,1011.57
2019-04-30T06:51:56.195Z,1011.54
2019-04-30T06:52:58.995Z,1011.60
2019-04-30T06:53:56.310Z,1011.59
2019-04-30T06:54:56.368Z,1011.58
2019-04-30T06:55:56.426Z,1011.57
2019-04-30T06:56:56.483Z,1011.58
2019-04-30T06:58:09.639Z,1011.59
2019-04-30T06:58:56.600Z,1011.62
2019-04-30T06:59:56.659Z,1011.59
2019-04-30T07:00:56.716Z,1011.57
2019-04-30T07:01:58.931Z,1011.58
2019-04-30T07:02:56.832Z,1011.57
2019-04-30T07:03:59.219Z,1011.58
2019-04-30T07:04:58.711Z,1011.62
2019-04-30T07:05:58.608Z,1011.64
2019-04-30T07:06:58.907Z,1011.58
2019-04-30T07:08:02.599Z,1011.54
2019-04-30T07:08:59.485Z,1011.63
2019-04-30T07:10:00.907Z,1011.65
2019-04-30T07:11:00.068Z,1011.67
2019-04-30T07:11:59.216Z,1011.64
2019-04-30T07:12:58.979Z,1011.62
2019-04-30T07:13:59.840Z,1011.67
2019-04-30T07:14:59.192Z,1011.69
2019-04-30T07:15:58.523Z,1011.69
2019-04-30T07:16:59.409Z,1011.73
2019-04-30T07:17:59.119Z,1011.70
2019-04-30T07:18:58.639Z,1011.72
2019-04-30T07:19:59.668Z,1011.72
2019-04-30T07:20:58.742Z,1011.71
2019-04-30T07:21:59.419Z,1011.70
2019-04-30T07:23:59.703Z,1011.74
2019-04-30T07:24:59.599Z,1011.73
2019-04-30T07:25:59.049Z,1011.69
2019-04-30T07:27:01.024Z,1011.71
2019-04-30T07:27:59.785Z,1011.73
2019-04-30T07:28:59.810Z,1011.77
2019-04-30T07:29:59.604Z,1011.79
2019-04-30T07:31:10.197Z,1011.79
2019-04-30T07:31:59.212Z,1011.85
2019-04-30T07:32:59.692Z,1011.77
2019-04-30T07:33:59.450Z,1011.76
2019-04-30T07:34:59.478Z,1011.78
2019-04-30T07:36:01.554Z,1011.76
2019-04-30T07:37:13.278Z,1011.80
2019-04-30T07:38:00.629Z,1011.79
2019-04-30T07:38:59.991Z,1011.82
2019-04-30T07:39:59.111Z,1011.81
2019-04-30T07:40:59.204Z,1011.81
2019-04-30T07:41:59.970Z,1011.93
2019-04-30T07:42:59.297Z,1011.79
2019-04-30T07:43:59.431Z,1011.86
2019-04-30T07:45:00.680Z,1011.81
2019-04-30T07:45:59.808Z,1011.77
2019-04-30T07:47:01.884Z,1011.79
2019-04-30T07:47:59.531Z,1011.83
2019-04-30T07:49:00.091Z,1011.83
2019-04-30T07:50:00.720Z,1011.85
2019-04-30T07:50:59.660Z,1011.84
2019-04-30T07:52:01.379Z,1011.81
2019-04-30T07:53:05.503Z,1011.79
2019-04-30T07:53:59.808Z,1011.79
2019-04-30T07:55:00.632Z,1011.72
2019-04-30T07:55:59.927Z,1011.75
2019-04-30T07:57:00.589Z,1011.76
2019-04-30T07:58:00.042Z,1011.76
2019-04-30T07:59:00.777Z,1011.74
2019-04-30T08:00:00.675Z,1011.74
2019-04-30T08:01:00.217Z,1011.76
2019-04-30T08:02:10.189Z,1011.76
2019-04-30T08:03:00.336Z,1011.79
2019-04-30T08:04:00.394Z,1011.75
2019-04-30T08:05:00.452Z,1011.72
2019-04-30T08:06:00.543Z,1011.75
2019-04-30T08:07:00.638Z,1011.81
2019-04-30T08:08:16.775Z,1011.78
2019-04-30T08:09:01.150Z,1011.71
2019-04-30T08:09:34.154Z,1011.74
2019-04-30T08:10:00.744Z,1011.73
2019-04-30T08:11:00.803Z,1011.74
2019-04-30T08:12:00.993Z,1011.74
2019-04-30T08:13:09.693Z,1011.74
2019-04-30T08:14:01.838Z,1011.73
2019-04-30T08:15:01.038Z,1011.73
2019-04-30T08:16:01.095Z,1011.75
2019-04-30T08:17:01.152Z,1011.72
2019-04-30T08:18:05.549Z,1011.72
2019-04-30T08:19:01.270Z,1011.75
2019-04-30T08:20:01.335Z,1011.80
2019-04-30T08:21:01.385Z,1011.80
2019-04-30T08:22:01.764Z,1011.83
2019-04-30T08:23:13.378Z,1011.80
2019-04-30T08:24:01.868Z,1011.76
2019-04-30T08:25:01.638Z,1011.67
2019-04-30T08:26:01.694Z,1011.77
2019-04-30T08:27:01.738Z,1011.75
2019-04-30T08:28:01.840Z,1011.73
2019-04-30T08:29:01.857Z,1011.74
2019-04-30T08:30:01.911Z,1011.74
2019-04-30T08:31:02.396Z,1011.69
2019-04-30T08:32:02.066Z,1011.74
2019-04-30T08:33:02.126Z,1011.72
2019-04-30T08:34:02.141Z,1011.69
2019-04-30T08:35:10.087Z,1011.72
2019-04-30T08:36:02.257Z,1011.74
2019-04-30T08:37:12.928Z,1011.79
2019-04-30T08:38:02.374Z,1011.78
2019-04-30T08:39:02.433Z,1011.72
2019-04-30T08:40:03.570Z,1011.75
2019-04-30T08:41:02.549Z,1011.74
2019-04-30T08:42:02.605Z,1011.75
2019-04-30T08:43:02.664Z,1011.72
2019-04-30T08:44:02.726Z,1011.70
2019-04-30T08:45:02.782Z,1011.72
2019-04-30T08:46:02.837Z,1011.70
2019-04-30T08:47:02.896Z,1011.66
2019-04-30T08:48:02.983Z,1011.70
2019-04-30T08:49:03.011Z,1011.73
2019-04-30T08:50:03.532Z,1011.74
2019-04-30T08:51:03.126Z,1011.77
2019-04-30T08:52:03.526Z,1011.75
2019-04-30T08:53:03.279Z,1011.65
2019-04-30T08:54:03.302Z,1011.61
2019-04-30T08:55:13.257Z,1011.63
2019-04-30T08:56:03.417Z,1011.65
2019-04-30T08:57:03.477Z,1011.63
2019-04-30T08:58:09.848Z,1011.64
2019-04-30T08:59:03.603Z,1011.63
2019-04-30T09:00:03.654Z,1011.64
2019-04-30T09:01:03.723Z,1011.60
2019-04-30T09:02:13.675Z,1011.67
2019-04-30T09:03:03.844Z,1011.66
2019-04-30T09:04:03.912Z,1011.65
2019-04-30T09:05:03.995Z,1011.64
2019-04-30T09:06:04.733Z,1011.60
2019-04-30T09:07:04.058Z,1011.61
2019-04-30T09:08:04.118Z,1011.63
2019-04-30T09:09:04.179Z,1011.64
2019-04-30T09:10:04.876Z,1011.66
2019-04-30T09:11:04.292Z,1011.72
2019-04-30T09:12:04.352Z,1011.64
2019-04-30T09:13:04.410Z,1011.72
2019-04-30T09:14:04.468Z,1011.68
2019-04-30T09:15:04.544Z,1011.62
2019-04-30T09:16:04.587Z,1011.63
2019-04-30T09:17:04.656Z,1011.61
2019-04-30T09:18:08.248Z,1011.65
2019-04-30T09:19:04.760Z,1011.71
2019-04-30T09:20:04.820Z,1011.65
2019-04-30T09:21:06.483Z,1011.61
2019-04-30T09:22:14.421Z,1011.64
2019-04-30T09:23:04.994Z,1011.62
2019-04-30T09:24:05.053Z,1011.68
2019-04-30T09:25:05.111Z,1011.65
2019-04-30T09:26:05.169Z,1011.72
2019-04-30T09:27:05.232Z,1011.66
2019-04-30T09:28:05.300Z,1011.66
2019-04-30T09:29:05.344Z,1011.61
2019-04-30T09:30:05.403Z,1011.61
2019-04-30T09:31:05.462Z,1011.65
2019-04-30T09:32:05.523Z,1011.68
2019-04-30T09:33:05.581Z,1011.66
2019-04-30T09:34:15.282Z,1011.71
2019-04-30T09:35:05.698Z,1011.69
2019-04-30T09:36:05.757Z,1011.71
2019-04-30T09:37:05.817Z,1011.64
2019-04-30T09:38:05.874Z,1011.62
2019-04-30T09:39:05.935Z,1011.62
2019-04-30T09:40:15.278Z,1011.60
2019-04-30T09:41:06.050Z,1011.60
2019-04-30T09:42:06.113Z,1011.61
2019-04-30T09:43:06.169Z,1011.57
2019-04-30T09:44:06.229Z,1011.61
2019-04-30T09:45:06.285Z,1011.66
2019-04-30T09:46:17.902Z,1011.64
2019-04-30T09:47:06.402Z,1011.60
2019-04-30T09:48:06.463Z,1011.64
2019-04-30T09:49:06.526Z,1011.63
2019-04-30T09:50:06.580Z,1011.68
2019-04-30T09:51:07.121Z,1011.65
2019-04-30T09:52:06.699Z,1011.75
2019-04-30T09:53:06.758Z,1011.71
2019-04-30T09:54:09.356Z,1011.67
2019-04-30T09:55:06.898Z,1011.69
2019-04-30T09:56:06.936Z,1011.64
2019-04-30T09:57:09.109Z,1011.65
2019-04-30T09:58:16.200Z,1011.68
2019-04-30T09:59:09.020Z,1011.68
2019-04-30T10:00:07.171Z,1011.70
2019-04-30T10:01:09.278Z,1011.67
2019-04-30T10:02:09.240Z,1011.61
2019-04-30T10:03:09.728Z,1011.65
2019-04-30T10:04:09.853Z,1011.65
2019-04-30T10:05:07.844Z,1011.56
2019-04-30T10:06:08.925Z,1011.59
2019-04-30T10:07:09.581Z,1011.60
2019-04-30T10:08:07.644Z,1011.69
2019-04-30T10:09:09.570Z,1011.73
2019-04-30T10:10:09.515Z,1011.69
2019-04-30T10:11:09.691Z,1011.65
2019-04-30T10:12:09.639Z,1011.68
2019-04-30T10:13:07.939Z,1011.70
2019-04-30T10:14:08.003Z,1011.66
2019-04-30T10:15:09.148Z,1011.65
2019-04-30T10:16:09.741Z,1011.63
2019-04-30T10:17:09.545Z,1011.58
2019-04-30T10:18:08.238Z,1011.67
2019-04-30T10:19:10.125Z,1011.66
2019-04-30T10:20:08.356Z,1011.75
2019-04-30T10:21:09.133Z,1012.14
2019-04-30T10:22:09.018Z,1012.28
2019-04-30T10:23:09.493Z,1012.34
2019-04-30T10:24:13.058Z,1012.37
2019-04-30T10:25:09.248Z,1012.46
2019-04-30T10:26:08.719Z,1012.44
2019-04-30T10:27:13.065Z,1012.46
2019-04-30T10:28:09.989Z,1012.51
2019-04-30T10:29:08.906Z,1012.46
2019-04-30T10:30:09.425Z,1012.44
2019-04-30T10:31:09.027Z,1012.48
2019-04-30T10:32:09.092Z,1012.45
2019-04-30T10:33:10.009Z,1012.44
2019-04-30T10:34:09.702Z,1012.42
2019-04-30T10:35:09.277Z,1012.44
2019-04-30T10:36:09.458Z,1012.54
2019-04-30T10:37:09.431Z,1012.55
2019-04-30T10:38:09.958Z,1012.56
2019-04-30T10:39:09.532Z,1012.55
2019-04-30T10:40:10.359Z,1012.55
2019-04-30T10:41:09.664Z,1012.66
2019-04-30T10:42:09.726Z,1012.65
2019-04-30T10:43:09.791Z,1012.60
2019-04-30T10:44:09.860Z,1012.60
2019-04-30T10:45:10.092Z,1012.61
2019-04-30T10:46:09.991Z,1012.67
2019-04-30T10:47:10.053Z,1012.68
2019-04-30T10:48:10.118Z,1012.67
2019-04-30T10:49:10.183Z,1012.65
2019-04-30T10:50:10.251Z,1012.59
2019-04-30T10:51:10.315Z,1012.62
2019-04-30T10:52:10.383Z,1012.63
2019-04-30T10:53:12.418Z,1012.59
2019-04-30T10:54:22.774Z,1012.70
2019-04-30T10:55:10.581Z,1012.69
2019-04-30T10:56:10.773Z,1012.65
2019-04-30T10:57:10.714Z,1012.65
2019-04-30T10:58:10.783Z,1012.59
2019-04-30T10:59:10.848Z,1012.55
2019-04-30T11:00:10.915Z,1012.62
2019-04-30T11:01:10.980Z,1012.54
2019-04-30T11:02:11.048Z,1012.49
2019-04-30T11:03:19.861Z,1012.53
2019-04-30T11:04:11.181Z,1012.49
2019-04-30T11:05:11.247Z,1012.42
2019-04-30T11:06:11.316Z,1012.45
2019-04-30T11:07:11.432Z,1012.48
2019-04-30T11:08:11.456Z,1012.39
2019-04-30T11:09:11.518Z,1012.42
2019-04-30T11:10:11.581Z,1012.44
2019-04-30T11:11:11.650Z,1012.38
2019-04-30T11:12:11.719Z,1012.42
2019-04-30T11:13:11.783Z,1012.37
2019-04-30T11:14:11.851Z,1012.33
2019-04-30T11:15:11.925Z,1012.35
2019-04-30T11:16:15.321Z,1012.31
2019-04-30T11:17:12.197Z,1012.27
2019-04-30T11:18:12.296Z,1012.24
2019-04-30T11:19:12.418Z,1012.22
2019-04-30T11:20:12.496Z,1012.19
2019-04-30T11:21:12.497Z,1012.14
2019-04-30T11:22:12.584Z,1012.15
2019-04-30T11:23:14.721Z,1012.16
2019-04-30T11:24:12.657Z,1012.12
2019-04-30T11:25:12.631Z,1012.13
2019-04-30T11:26:13.150Z,1012.11
2019-04-30T11:27:13.375Z,1012.18
2019-04-30T11:28:13.378Z,1012.16
2019-04-30T11:29:13.019Z,1012.08
2019-04-30T11:30:23.333Z,1012.01
2019-04-30T11:31:13.154Z,1012.02
2019-04-30T11:32:13.267Z,1011.99
2019-04-30T11:33:13.376Z,1012.00
2019-04-30T11:34:13.207Z,1011.98
2019-04-30T11:35:13.262Z,1011.92
2019-04-30T11:36:13.330Z,1011.98
2019-04-30T11:37:13.396Z,1011.90
2019-04-30T11:38:13.464Z,1011.93
2019-04-30T11:39:13.531Z,1011.88
2019-04-30T11:40:13.598Z,1011.86
2019-04-30T11:41:13.668Z,1011.82
2019-04-30T11:42:13.733Z,1011.75
2019-04-30T11:43:13.801Z,1011.77
2019-04-30T11:44:13.869Z,1011.75
2019-04-30T11:45:13.935Z,1011.80
2019-04-30T11:46:14.003Z,1011.83
2019-04-30T11:47:14.073Z,1011.81
2019-04-30T11:48:14.139Z,1011.84
2019-04-30T11:49:14.208Z,1011.82
2019-04-30T11:50:14.277Z,1011.85
2019-04-30T11:51:14.343Z,1011.82
2019-04-30T11:52:14.411Z,1011.83
2019-04-30T11:53:25.245Z,1011.88
2019-04-30T11:54:14.545Z,1011.90
2019-04-30T11:55:14.615Z,1011.94
2019-04-30T11:56:14.687Z,1011.97
2019-04-30T11:57:14.746Z,1011.92
2019-04-30T11:58:21.661Z,1012.00
2019-04-30T11:59:14.884Z,1011.95
2019-04-30T12:00:14.953Z,1011.94
2019-04-30T12:01:15.019Z,1011.96
2019-04-30T12:02:15.087Z,1011.96
2019-04-30T12:03:15.155Z,1011.90
2019-04-30T12:04:15.224Z,1011.89
2019-04-30T12:05:16.068Z,1011.85
2019-04-30T12:06:15.361Z,1011.76